Time;durP1;ratioP1;P1;durP2;ratioP2;P2;SDS_P1;SDS_P2;PMS_P1;PMS_P2;Temp;Humidity;BMP_temperature;BMP_pressure;BME280_temperature;BME280_humidity;BME280_pressure;Samples;Min_cycle;Max_cycle;Signal;HPM_P1;HPM_P2
2023/12/28 05:00:28;;;;;;;1.57;1.37;;;9.60;89.80;;;;;;6116403;23;20474;31
2023/12/28 05:02:54;;;;;;;1.10;1.00;;;9.60;90.20;;;;;;4978717;28;20463;-87
2023/12/28 05:05:19;;;;;;;1.10;1.00;;;9.50;90.20;;;;;;4954847;28;20472;-86
2023/12/28 05:07:45;;;;;;;1.57;1.13;;;9.50;90.80;;;;;;4952598;28;20725;-87
2023/12/28 05:10:12;;;;;;;1.23;1.13;;;9.50;90.90;;;;;;4952143;28;20225;-87
2023/12/28 05:12:37;;;;;;;2.20;1.40;;;9.60;91.20;;;;;;4967791;28;20443;-87
2023/12/28 05:15:03;;;;;;;1.20;1.10;;;9.60;91.30;;;;;;4965181;28;20218;-87
2023/12/28 05:17:29;;;;;;;1.00;0.90;;;9.60;91.60;;;;;;4954655;28;20191;-87
2023/12/28 05:19:55;;;;;;;1.37;0.90;;;9.70;91.40;;;;;;4956683;28;20423;-87
2023/12/28 05:22:29;;;;;;;1.57;1.40;;;9.80;91.60;;;;;;5002942;23;20610;-90
2023/12/28 05:24:57;;;;;;;1.43;1.33;;;9.80;91.40;;;;;;4999791;28;20475;-91
2023/12/28 05:27:25;;;;;;;1.20;1.10;;;9.80;91.40;;;;;;5002034;28;20432;-91
2023/12/28 05:29:56;;;;;;;0.90;0.80;;;9.90;91.40;;;;;;4994850;28;20434;-89
2023/12/28 05:32:22;;;;;;;1.40;1.30;;;9.90;91.60;;;;;;5000647;28;20504;-91
2023/12/28 05:34:49;;;;;;;2.50;1.30;;;9.80;91.70;;;;;;5002786;28;20515;-91
2023/12/28 05:37:17;;;;;;;1.40;1.30;;;9.80;91.80;;;;;;5003556;28;20191;-91
2023/12/28 05:39:46;;;;;;;1.03;1.00;;;9.90;91.80;;;;;;5002928;28;20421;-91
2023/12/28 05:42:17;;;;;;;1.50;1.40;;;9.90;92.10;;;;;;5001720;28;20440;-91
2023/12/28 05:44:43;;;;;;;2.10;1.43;;;9.90;92.30;;;;;;5001050;28;20480;-92
2023/12/28 05:47:08;;;;;;;2.20;1.63;;;10.00;92.20;;;;;;5000495;28;21013;-91
2023/12/28 05:49:36;;;;;;;7.13;2.90;;;10.00;92.50;;;;;;5000197;28;20635;-91
2023/12/28 05:52:05;;;;;;;1.67;1.57;;;10.00;93.10;;;;;;5006464;28;20181;-90
2023/12/28 05:54:38;;;;;;;1.10;1.00;;;10.00;93.50;;;;;;4996451;28;20417;-91
2023/12/28 05:57:06;;;;;;;1.00;0.90;;;10.00;93.60;;;;;;4996256;28;20431;-91
2023/12/28 05:59:34;;;;;;;2.00;1.90;;;10.00;93.80;;;;;;5003103;28;20961;-91
2023/12/28 06:02:05;;;;;;;1.27;1.17;;;10.00;94.10;;;;;;4994726;28;20429;-93
2023/12/28 06:04:37;;;;;;;1.00;0.90;;;10.00;94.30;;;;;;4994634;28;20449;-91
2023/12/28 06:07:06;;;;;;;2.00;1.43;;;10.00;94.70;;;;;;4987275;28;20417;-91
2023/12/28 06:09:36;;;;;;;1.30;1.20;;;10.00;95.00;;;;;;4994634;28;20425;-92
2023/12/28 06:12:08;;;;;;;1.00;0.90;;;10.00;95.40;;;;;;4987567;28;20705;-91
2023/12/28 06:14:38;;;;;;;1.17;1.13;;;10.00;95.30;;;;;;4995440;28;20816;-91
2023/12/28 06:17:06;;;;;;;1.90;1.17;;;10.00;95.60;;;;;;4995603;28;20429;-91
2023/12/28 06:19:35;;;;;;;0.90;0.80;;;10.10;95.50;;;;;;4994517;28;20413;-91
2023/12/28 06:22:06;;;;;;;1.20;1.17;;;10.10;95.60;;;;;;4993459;28;20413;-91
2023/12/28 06:24:34;;;;;;;1.00;0.90;;;10.10;95.80;;;;;;4993517;28;20800;-91
2023/12/28 06:27:05;;;;;;;6.87;1.33;;;10.00;96.10;;;;;;4993737;28;20427;-91
2023/12/28 06:29:33;;;;;;;1.70;1.60;;;10.00;96.40;;;;;;4994071;28;20428;-91
2023/12/28 06:31:58;;;;;;;1.20;1.10;;;10.00;96.80;;;;;;4994108;28;20421;-92
2023/12/28 06:34:25;;;;;;;1.57;1.47;;;10.10;96.90;;;;;;4994192;28;20511;-92
2023/12/28 06:36:58;;;;;;;1.30;1.20;;;10.10;97.10;;;;;;4993073;28;20182;-91
2023/12/28 06:39:26;;;;;;;2.23;2.13;;;10.00;97.30;;;;;;4993146;28;20431;-91
2023/12/28 06:42:02;;;;;;;10.70;1.73;;;10.00;97.30;;;;;;4993568;28;20448;-91
2023/12/28 06:44:28;;;;;;;7.13;1.90;;;10.00;97.30;;;;;;4994623;28;20494;-91
2023/12/28 06:46:56;;;;;;;1.00;1.00;;;10.00;97.30;;;;;;4993417;28;20949;-91
2023/12/28 06:49:24;;;;;;;1.23;1.10;;;10.00;97.30;;;;;;4992000;28;20257;-91
2023/12/28 06:51:57;;;;;;;1.10;1.00;;;10.00;97.30;;;;;;5000998;28;20484;-91
2023/12/28 06:54:26;;;;;;;3.17;1.20;;;9.90;97.30;;;;;;4999884;28;20445;-91
2023/12/28 06:56:51;;;;;;;1.73;1.63;;;9.90;97.30;;;;;;4995821;28;20511;-91
2023/12/28 06:59:17;;;;;;;1.77;1.67;;;9.80;97.30;;;;;;4996244;28;20425;-91
2023/12/28 07:01:44;;;;;;;3.07;1.10;;;9.90;97.30;;;;;;4997619;28;20182;-90
2023/12/28 07:04:09;;;;;;;1.00;0.90;;;9.90;97.30;;;;;;4995560;28;20256;-92
2023/12/28 07:06:35;;;;;;;1.43;1.33;;;9.90;97.30;;;;;;4996317;28;20887;-91
2023/12/28 07:09:01;;;;;;;1.00;0.90;;;9.80;97.30;;;;;;5005122;28;20178;-92
2023/12/28 07:11:27;;;;;;;1.77;1.67;;;9.80;97.30;;;;;;4997058;28;20663;-91
2023/12/28 07:13:53;;;;;;;1.10;1.00;;;9.80;97.30;;;;;;4997264;28;20441;-93
2023/12/28 07:16:18;;;;;;;1.70;1.60;;;9.80;97.30;;;;;;5005603;28;20226;-92
2023/12/28 07:18:44;;;;;;;2.10;1.57;;;9.70;97.30;;;;;;5016593;28;20460;-90
2023/12/28 07:21:09;;;;;;;1.20;1.10;;;9.70;97.30;;;;;;5018110;28;20258;-92
2023/12/28 07:23:35;;;;;;;1.83;1.73;;;9.70;97.30;;;;;;5022258;28;20240;-91
2023/12/28 07:26:01;;;;;;;1.00;0.90;;;9.70;97.30;;;;;;5016809;28;20429;-92
2023/12/28 07:28:27;;;;;;;1.10;1.00;;;9.70;97.30;;;;;;5015823;28;20421;-92
2023/12/28 07:30:55;;;;;;;1.07;1.03;;;9.70;97.30;;;;;;5016399;28;20233;-91
2023/12/28 07:33:21;;;;;;;1.10;1.10;;;9.70;97.30;;;;;;5016758;28;20189;-92
2023/12/28 07:35:47;;;;;;;1.20;1.10;;;9.70;97.30;;;;;;5016839;28;20500;-91
2023/12/28 07:38:13;;;;;;;2.97;1.10;;;9.70;97.30;;;;;;5015959;28;20252;-88
2023/12/28 07:40:38;;;;;;;1.20;1.10;;;9.70;97.30;;;;;;5001140;28;20237;-91
2023/12/28 07:43:04;;;;;;;1.17;1.10;;;9.60;97.30;;;;;;4997225;28;20527;-90
2023/12/28 07:45:29;;;;;;;1.47;1.33;;;9.60;97.30;;;;;;5000690;28;20224;-91
2023/12/28 07:47:55;;;;;;;1.60;1.37;;;9.60;97.30;;;;;;4994219;28;20688;-90
2023/12/28 07:50:21;;;;;;;2.23;2.03;;;9.60;97.30;;;;;;5003290;28;20189;-90
2023/12/28 07:52:47;;;;;;;1.27;1.17;;;9.60;97.30;;;;;;4996888;28;20295;-91
2023/12/28 07:55:16;;;;;;;3.50;1.53;;;9.50;97.30;;;;;;5000206;28;20192;-88
2023/12/28 07:57:42;;;;;;;1.43;1.33;;;9.50;97.30;;;;;;5001211;28;20451;-91
2023/12/28 08:00:09;;;;;;;1.00;1.00;;;9.50;97.30;;;;;;4995100;28;20425;-92
2023/12/28 08:02:34;;;;;;;2.07;1.60;;;9.60;97.30;;;;;;4993483;28;20962;-91
2023/12/28 08:05:00;;;;;;;1.47;1.00;;;9.60;97.30;;;;;;4993958;28;20464;-91
2023/12/28 08:07:25;;;;;;;2.40;1.10;;;9.50;97.30;;;;;;4993194;28;20558;-92
2023/12/28 08:09:53;;;;;;;0.97;0.93;;;9.50;97.30;;;;;;4993469;28;20247;-91
2023/12/28 08:12:20;;;;;;;1.47;1.37;;;9.40;97.30;;;;;;4993354;28;20260;-91
2023/12/28 08:14:46;;;;;;;1.27;1.17;;;9.40;97.30;;;;;;4995409;28;20435;-90
2023/12/28 08:17:11;;;;;;;1.20;1.10;;;9.40;97.30;;;;;;4993442;28;20533;-92
2023/12/28 08:19:37;;;;;;;0.90;0.80;;;9.40;97.30;;;;;;4998432;28;20571;-91
2023/12/28 08:22:03;;;;;;;0.97;0.97;;;9.40;97.30;;;;;;4994059;28;20197;-91
2023/12/28 08:24:29;;;;;;;1.37;0.93;;;9.40;97.30;;;;;;4993095;28;20728;-92
2023/12/28 08:26:59;;;;;;;1.33;1.20;;;9.40;97.30;;;;;;4993106;28;20194;-91
2023/12/28 08:29:24;;;;;;;1.30;1.20;;;9.40;97.30;;;;;;4993130;28;20428;-91
2023/12/28 08:31:50;;;;;;;2.30;1.30;;;9.40;97.30;;;;;;4998492;28;20426;-90
2023/12/28 08:34:15;;;;;;;1.13;1.03;;;9.40;97.30;;;;;;4993750;28;20548;-91
2023/12/28 08:36:41;;;;;;;1.90;1.80;;;9.30;97.30;;;;;;4990935;28;20181;-90
2023/12/28 08:39:07;;;;;;;0.90;0.80;;;9.30;97.30;;;;;;4990389;28;20675;-91
2023/12/28 08:41:32;;;;;;;1.37;1.27;;;9.30;97.30;;;;;;5000969;28;20421;-91
2023/12/28 08:43:58;;;;;;;1.30;1.20;;;9.30;97.30;;;;;;4993448;28;20261;-91
2023/12/28 08:46:26;;;;;;;1.00;0.90;;;9.30;97.30;;;;;;4993072;28;20213;-91
2023/12/28 08:48:54;;;;;;;1.43;1.37;;;9.30;97.30;;;;;;4995388;28;20199;-92
2023/12/28 08:51:20;;;;;;;2.57;2.07;;;9.30;97.30;;;;;;5001089;28;20421;-93
2023/12/28 08:53:46;;;;;;;3.80;2.10;;;9.30;97.30;;;;;;5002920;28;20540;-92
2023/12/28 08:56:26;;;;;;;1.30;1.20;;;9.30;97.30;;;;;;5008344;28;20860;-92
2023/12/28 08:58:54;;;;;;;1.93;1.87;;;9.30;97.30;;;;;;5013962;28;20666;-90
2023/12/28 09:01:21;;;;;;;0.90;0.80;;;9.30;97.30;;;;;;4995251;28;20514;-93
2023/12/28 09:04:01;;;;;;;1.10;1.00;;;9.30;97.30;;;;;;5003078;28;20444;-92
2023/12/28 09:06:36;;;;;;;5.13;1.90;;;9.30;97.30;;;;;;5009207;28;20876;-90
2023/12/28 09:09:10;;;;;;;1.20;1.10;;;9.30;97.30;;;;;;5005536;28;20431;-91
2023/12/28 09:11:37;;;;;;;1.30;1.20;;;9.30;97.30;;;;;;5007556;28;20508;-92
2023/12/28 09:14:08;;;;;;;1.73;1.17;;;9.20;97.30;;;;;;5002182;28;20995;-92
2023/12/28 09:16:39;;;;;;;1.00;0.90;;;9.20;97.30;;;;;;5004302;28;20509;-94
2023/12/28 09:19:07;;;;;;;1.70;1.60;;;9.20;97.30;;;;;;5013796;28;20423;-93
2023/12/28 09:21:39;;;;;;;1.10;1.00;;;9.20;97.30;;;;;;5002617;28;20415;-93
2023/12/28 09:24:07;;;;;;;0.97;0.87;;;9.20;97.30;;;;;;5010420;28;20496;-93
2023/12/28 09:26:39;;;;;;;1.13;1.03;;;9.20;97.30;;;;;;5013674;28;20492;-93
2023/12/28 09:29:05;;;;;;;1.50;1.40;;;9.20;97.30;;;;;;5015140;28;20421;-94
2023/12/28 09:31:38;;;;;;;1.60;1.50;;;9.20;97.30;;;;;;5006310;28;20784;-93
2023/12/28 09:34:06;;;;;;;1.27;1.17;;;9.30;97.30;;;;;;5001682;28;20197;-94
2023/12/28 09:36:34;;;;;;;1.73;1.63;;;9.30;97.30;;;;;;5000167;28;20443;-93
2023/12/28 09:39:02;;;;;;;0.90;0.80;;;9.30;97.30;;;;;;5004172;28;20420;-94
2023/12/28 09:41:33;;;;;;;1.83;1.00;;;9.30;97.30;;;;;;5004271;28;20436;-93
2023/12/28 09:44:12;;;;;;;0.97;0.87;;;9.30;97.30;;;;;;5007417;28;20807;-93
2023/12/28 09:46:41;;;;;;;1.37;1.27;;;9.30;97.30;;;;;;5014436;28;20506;-93
2023/12/28 09:49:07;;;;;;;1.10;1.00;;;9.30;97.30;;;;;;5012545;28;20523;-93
2023/12/28 09:51:33;;;;;;;1.40;1.30;;;9.30;97.30;;;;;;5009249;28;20429;-92
2023/12/28 09:53:58;;;;;;;1.10;1.00;;;9.30;97.30;;;;;;5004455;28;20445;-93
2023/12/28 09:56:24;;;;;;;1.10;1.00;;;9.30;97.30;;;;;;5001735;28;20193;-93
2023/12/28 09:58:55;;;;;;;0.93;0.83;;;9.30;97.30;;;;;;5008203;28;20276;-94
2023/12/28 10:01:20;;;;;;;1.47;1.27;;;9.30;97.30;;;;;;5008794;28;20206;-94
2023/12/28 10:03:46;;;;;;;1.00;0.90;;;9.40;97.30;;;;;;5013174;28;20443;-95
2023/12/28 10:06:17;;;;;;;1.20;1.10;;;9.40;97.30;;;;;;5005668;28;20209;-93
2023/12/28 10:08:47;;;;;;;1.10;1.00;;;9.40;97.30;;;;;;5006253;28;20182;-93
2023/12/28 10:11:17;;;;;;;3.53;1.77;;;9.40;97.30;;;;;;5013481;28;20447;-92
2023/12/28 10:13:45;;;;;;;1.00;0.90;;;9.50;97.30;;;;;;5001818;28;20445;-92
2023/12/28 10:16:16;;;;;;;1.03;0.93;;;9.50;97.30;;;;;;5004786;28;20428;-92
2023/12/28 10:18:45;;;;;;;1.00;0.90;;;9.50;97.30;;;;;;5001886;28;20927;-93
2023/12/28 10:21:16;;;;;;;0.90;0.80;;;9.50;97.30;;;;;;5012272;28;20428;-91
2023/12/28 10:23:48;;;;;;;1.47;1.47;;;9.50;97.30;;;;;;5003630;28;20472;-92
2023/12/28 10:26:19;;;;;;;1.73;1.63;;;9.50;97.30;;;;;;5015635;28;20455;-93
2023/12/28 10:28:44;;;;;;;1.47;1.37;;;9.50;97.30;;;;;;5012853;28;20760;-92
2023/12/28 10:31:14;;;;;;;1.30;1.20;;;9.50;97.30;;;;;;5014799;28;20436;-92
2023/12/28 10:33:45;;;;;;;0.90;0.80;;;9.50;97.30;;;;;;5004529;28;20212;-92
2023/12/28 10:36:14;;;;;;;1.23;1.17;;;9.50;97.30;;;;;;5016555;28;20819;-92
2023/12/28 10:38:46;;;;;;;1.27;0.93;;;9.50;97.30;;;;;;5003856;28;20430;-92
2023/12/28 10:41:16;;;;;;;0.90;0.80;;;9.60;97.30;;;;;;5000620;28;20428;-93
2023/12/28 10:43:55;;;;;;;1.30;1.20;;;9.60;97.30;;;;;;5001213;28;20436;-93
2023/12/28 10:46:27;;;;;;;1.23;1.00;;;9.70;97.30;;;;;;5001258;28;20460;-92
2023/12/28 10:49:08;;;;;;;1.17;1.07;;;9.70;97.30;;;;;;5000726;28;20436;-91
2023/12/28 10:51:36;;;;;;;1.27;1.17;;;9.90;97.30;;;;;;5001322;28;20448;-92
2023/12/28 10:54:14;;;;;;;1.30;1.20;;;9.90;97.30;;;;;;5000335;28;20440;-93
2023/12/28 10:56:55;;;;;;;1.00;0.90;;;10.00;97.30;;;;;;5003338;28;20476;-93
2023/12/28 10:59:27;;;;;;;0.90;0.80;;;10.10;97.30;;;;;;5000131;28;20433;-93
2023/12/28 11:01:56;;;;;;;12.27;1.87;;;10.20;97.30;;;;;;5018146;28;20432;-92
2023/12/28 11:04:57;;;;;;;1.20;1.10;;;10.40;97.30;;;;;;5006781;28;20447;-93
2023/12/28 11:07:24;;;;;;;0.93;0.83;;;10.60;97.30;;;;;;5010814;28;20459;-93
2023/12/28 11:09:56;;;;;;;2.10;1.33;;;10.70;97.30;;;;;;5012461;28;20432;-91
2023/12/28 11:12:26;;;;;;;0.97;0.93;;;10.80;97.30;;;;;;5006919;28;20456;-94
2023/12/28 11:14:56;;;;;;;1.17;1.07;;;10.90;97.30;;;;;;5008084;28;20413;-91
2023/12/28 11:17:25;;;;;;;3.57;2.57;;;10.90;97.30;;;;;;5008524;28;20405;-94
2023/12/28 11:20:11;;;;;;;;;;;;;;;;;;;;;
2023/12/28 11:22:38;;;;;;;1.10;1.00;;;11.00;97.30;;;;;;5009006;28;20499;-93
2023/12/28 11:25:04;;;;;;;1.10;1.00;;;10.90;97.30;;;;;;5027388;23;20507;-89
2023/12/28 11:27:36;;;;;;;1.50;1.30;;;10.90;97.30;;;;;;5012121;28;20492;-89
2023/12/28 11:30:04;;;;;;;4.20;2.10;;;11.00;97.30;;;;;;5001695;28;20430;-90
2023/12/28 11:32:33;;;;;;;1.40;1.30;;;10.90;97.30;;;;;;4989289;28;20932;-90
2023/12/28 11:34:59;;;;;;;1.93;1.87;;;11.00;97.30;;;;;;5005107;28;20443;-90
2023/12/28 11:37:26;;;;;;;1.67;1.57;;;11.00;97.30;;;;;;5006091;28;20446;-91
2023/12/28 11:39:52;;;;;;;1.23;1.10;;;11.10;97.30;;;;;;5004805;28;20182;-90
2023/12/28 11:42:22;;;;;;;0.90;0.80;;;11.20;97.00;;;;;;5004273;28;20431;-90
2023/12/28 11:44:56;;;;;;;1.47;1.37;;;11.40;96.60;;;;;;4996003;28;20272;-90
2023/12/28 11:47:27;;;;;;;1.37;0.93;;;11.70;96.40;;;;;;5003776;28;20421;-91
2023/12/28 11:49:54;;;;;;;2.50;1.60;;;11.90;95.70;;;;;;4997227;28;20425;-90
2023/12/28 11:52:38;;;;;;;1.00;0.90;;;12.00;94.80;;;;;;4998248;28;20452;-90
2023/12/28 11:55:04;;;;;;;1.90;1.00;;;11.70;95.50;;;;;;4998577;28;20440;-89
2023/12/28 11:57:30;;;;;;;0.90;0.80;;;11.90;95.40;;;;;;5004017;28;20438;-91
2023/12/28 12:00:02;;;;;;;1.03;0.93;;;11.70;94.90;;;;;;5005059;28;20424;-91
2023/12/28 12:02:27;;;;;;;1.30;1.10;;;11.80;95.30;;;;;;5002306;28;20182;-94
2023/12/28 12:04:54;;;;;;;1.23;1.00;;;12.00;95.10;;;;;;5003065;28;20433;-91
2023/12/28 12:07:20;;;;;;;1.30;1.20;;;12.00;94.60;;;;;;5004706;28;20204;-91
2023/12/28 12:09:45;;;;;;;6.93;1.57;;;12.00;94.90;;;;;;5014646;28;20456;-90
2023/12/28 12:12:11;;;;;;;1.10;1.00;;;12.30;94.60;;;;;;5009844;28;20549;-93
2023/12/28 12:14:36;;;;;;;1.13;1.03;;;12.40;94.00;;;;;;5017753;28;20178;-91
2023/12/28 12:17:03;;;;;;;1.43;1.33;;;12.40;93.50;;;;;;5013757;28;20178;-92
2023/12/28 12:19:29;;;;;;;1.97;1.77;;;12.50;94.00;;;;;;5014738;28;20181;-90
2023/12/28 12:21:55;;;;;;;1.90;1.77;;;12.70;93.30;;;;;;5017827;28;20417;-94
2023/12/28 12:24:22;;;;;;;1.10;1.00;;;12.80;93.30;;;;;;5005326;28;20179;-91
2023/12/28 12:26:48;;;;;;;0.90;0.80;;;13.20;93.00;;;;;;5007939;28;20483;-89
2023/12/28 12:29:14;;;;;;;1.10;1.00;;;13.40;91.80;;;;;;5006934;28;20495;-90
2023/12/28 12:31:41;;;;;;;2.17;2.00;;;13.40;91.60;;;;;;5005189;28;20497;-92
2023/12/28 12:34:09;;;;;;;1.23;1.13;;;13.20;91.60;;;;;;5012323;28;20236;-91
2023/12/28 12:36:34;;;;;;;1.00;0.90;;;13.30;91.70;;;;;;5015929;28;20479;-92
2023/12/28 12:39:00;;;;;;;0.80;0.77;;;13.40;91.50;;;;;;5014910;28;20441;-92
2023/12/28 12:41:26;;;;;;;1.50;1.40;;;13.70;91.70;;;;;;5013812;28;20213;-91
2023/12/28 12:43:52;;;;;;;1.13;1.03;;;13.90;90.40;;;;;;5007977;28;20186;-91
2023/12/28 12:46:17;;;;;;;1.67;1.57;;;13.80;89.60;;;;;;5001578;28;20480;-91
2023/12/28 12:48:56;;;;;;;1.50;1.40;;;13.60;90.30;;;;;;4998286;28;20198;-91
2023/12/28 12:51:21;;;;;;;1.00;1.00;;;13.30;91.10;;;;;;5006443;28;20178;-92
2023/12/28 12:53:47;;;;;;;1.03;0.97;;;13.30;91.20;;;;;;4996217;28;20433;-88
2023/12/28 12:56:13;;;;;;;2.20;1.80;;;13.40;91.10;;;;;;4996055;28;20201;-89
2023/12/28 12:58:39;;;;;;;1.00;0.90;;;13.00;91.30;;;;;;5003509;28;20194;-92
2023/12/28 13:01:04;;;;;;;1.43;1.33;;;12.80;92.10;;;;;;5012749;28;20424;-90
2023/12/28 13:03:30;;;;;;;1.00;1.00;;;12.90;92.00;;;;;;4996599;28;20684;-90
2023/12/28 13:05:56;;;;;;;0.93;0.87;;;12.80;92.00;;;;;;4993627;28;20209;-89
2023/12/28 13:08:22;;;;;;;1.13;0.97;;;13.00;91.60;;;;;;4997524;28;20410;-90
2023/12/28 13:10:49;;;;;;;1.20;1.07;;;13.10;91.60;;;;;;4994961;28;20444;-90
2023/12/28 13:13:15;;;;;;;1.20;1.10;;;13.40;91.20;;;;;;4983632;28;20535;-89
2023/12/28 13:15:40;;;;;;;2.80;1.73;;;13.70;90.70;;;;;;4992699;28;20484;-90
2023/12/28 13:18:06;;;;;;;1.17;1.07;;;13.60;90.50;;;;;;4992754;28;20384;-90
2023/12/28 13:20:31;;;;;;;1.80;1.10;;;13.50;90.30;;;;;;5000009;28;20194;-90
2023/12/28 13:22:57;;;;;;;1.10;1.00;;;13.50;90.30;;;;;;5001252;28;20224;-90
2023/12/28 13:25:22;;;;;;;1.17;1.10;;;13.50;90.40;;;;;;4997953;28;20244;-90
2023/12/28 13:27:48;;;;;;;0.93;0.83;;;13.60;90.40;;;;;;4990462;28;20228;-90
2023/12/28 13:30:14;;;;;;;0.90;0.80;;;13.60;90.20;;;;;;4994299;28;20727;-90
2023/12/28 13:32:39;;;;;;;2.13;1.30;;;13.50;90.10;;;;;;4991873;28;20464;-89
2023/12/28 13:35:05;;;;;;;1.67;1.17;;;13.50;90.50;;;;;;4992712;28;20220;-90
2023/12/28 13:37:31;;;;;;;3.80;2.17;;;13.40;90.70;;;;;;4992727;28;20190;-89
2023/12/28 13:39:56;;;;;;;1.30;1.20;;;13.50;90.30;;;;;;5011274;28;20674;-91
2023/12/28 13:42:23;;;;;;;3.60;1.27;;;13.30;90.60;;;;;;4994054;28;20251;-91
2023/12/28 13:44:48;;;;;;;1.40;1.30;;;13.20;90.80;;;;;;4990951;28;20196;-89
2023/12/28 13:47:14;;;;;;;1.20;1.10;;;13.10;91.20;;;;;;4994474;28;20437;-89
2023/12/28 13:49:39;;;;;;;0.90;0.80;;;13.10;91.30;;;;;;4995320;28;20207;-90
2023/12/28 13:52:05;;;;;;;1.07;0.97;;;13.20;91.00;;;;;;4994687;28;20546;-90
2023/12/28 13:54:31;;;;;;;21.07;1.40;;;13.30;91.00;;;;;;5002357;28;20196;-92
2023/12/28 13:56:58;;;;;;;0.87;0.80;;;13.40;91.00;;;;;;4993562;28;20186;-90
2023/12/28 13:59:24;;;;;;;0.90;0.80;;;13.20;91.00;;;;;;5007494;28;20209;-89
2023/12/28 14:01:49;;;;;;;1.37;1.27;;;13.30;91.10;;;;;;5008968;28;20441;-92
2023/12/28 14:04:15;;;;;;;1.00;0.90;;;13.30;91.10;;;;;;5000220;28;20193;-88
2023/12/28 14:06:40;;;;;;;1.00;0.90;;;13.20;91.10;;;;;;5005374;28;20497;-89
2023/12/28 14:09:06;;;;;;;1.00;0.90;;;13.40;91.00;;;;;;5007474;28;20220;-88
2023/12/28 14:11:31;;;;;;;1.47;1.23;;;13.40;90.70;;;;;;5010484;28;20189;-91
2023/12/28 14:13:57;;;;;;;1.23;1.13;;;13.40;90.70;;;;;;5010618;28;20188;-90
2023/12/28 14:16:23;;;;;;;3.60;1.20;;;13.20;90.70;;;;;;4997375;28;20205;-90
2023/12/28 14:18:48;;;;;;;1.10;1.00;;;12.90;91.50;;;;;;5009672;28;20220;-92
2023/12/28 14:21:14;;;;;;;1.23;1.10;;;12.90;91.40;;;;;;5007646;28;20278;-91
2023/12/28 14:23:41;;;;;;;3.57;2.00;;;12.90;91.50;;;;;;5008016;28;20181;-92
2023/12/28 14:26:13;;;;;;;5.93;1.93;;;12.80;91.80;;;;;;5010643;28;20484;-90
2023/12/28 14:28:39;;;;;;;3.83;2.20;;;12.90;91.60;;;;;;4997562;28;20433;-91
2023/12/28 14:31:05;;;;;;;1.00;0.90;;;12.80;91.60;;;;;;5008166;28;20427;-91
2023/12/28 14:33:31;;;;;;;2.00;1.13;;;12.60;91.90;;;;;;5006021;28;20233;-90
2023/12/28 14:35:57;;;;;;;3.13;1.93;;;12.30;92.40;;;;;;5007234;28;20220;-90
2023/12/28 14:38:23;;;;;;;1.10;1.00;;;12.00;93.10;;;;;;5005480;28;20432;-90
2023/12/28 14:40:51;;;;;;;1.90;1.40;;;11.90;93.70;;;;;;5004201;28;20173;-89
2023/12/28 14:43:17;;;;;;;1.27;1.13;;;11.60;94.30;;;;;;5005033;28;20181;-89
2023/12/28 14:45:42;;;;;;;1.00;0.90;;;11.40;94.90;;;;;;5001479;28;20475;-89
2023/12/28 14:48:08;;;;;;;1.20;1.10;;;11.30;95.40;;;;;;5001425;28;20424;-88
2023/12/28 14:50:35;;;;;;;1.10;1.00;;;11.20;95.80;;;;;;4999127;28;20312;-89
2023/12/28 14:53:00;;;;;;;1.53;1.43;;;11.00;96.20;;;;;;5010699;28;20644;-89
2023/12/28 14:55:27;;;;;;;1.13;1.10;;;10.90;96.60;;;;;;5004488;28;20505;-89
2023/12/28 14:57:53;;;;;;;1.47;1.37;;;10.80;96.90;;;;;;5003915;28;20250;-89
2023/12/28 15:00:18;;;;;;;5.43;2.90;;;10.70;97.20;;;;;;5007785;28;20428;-88
2023/12/28 15:02:44;;;;;;;3.60;1.60;;;10.60;97.30;;;;;;5013917;28;20272;-90
2023/12/28 15:05:12;;;;;;;1.53;1.43;;;10.50;97.30;;;;;;4998280;28;20244;-90
2023/12/28 15:07:37;;;;;;;1.17;1.07;;;10.40;97.30;;;;;;5007953;28;20173;-91
2023/12/28 15:10:03;;;;;;;1.13;1.03;;;10.40;97.30;;;;;;5001273;28;20440;-91
2023/12/28 15:12:29;;;;;;;0.97;0.87;;;10.40;97.30;;;;;;4997801;28;20185;-89
2023/12/28 15:14:55;;;;;;;1.67;1.57;;;10.30;97.30;;;;;;4996810;28;20453;-90
2023/12/28 15:17:22;;;;;;;1.40;1.30;;;10.30;97.30;;;;;;4998858;28;20189;-89
2023/12/28 15:19:48;;;;;;;1.50;1.40;;;10.30;97.30;;;;;;5009863;28;20180;-90
2023/12/28 15:22:13;;;;;;;1.33;1.23;;;10.30;97.30;;;;;;4996790;28;20473;-91
2023/12/28 15:24:39;;;;;;;1.00;0.90;;;10.20;97.30;;;;;;4992478;28;20447;-90
2023/12/28 15:27:07;;;;;;;1.20;1.10;;;10.20;97.30;;;;;;4993447;28;20218;-89
2023/12/28 15:29:33;;;;;;;1.57;1.20;;;10.20;97.30;;;;;;4995005;28;20931;-89
2023/12/28 15:31:58;;;;;;;1.43;1.33;;;10.10;97.30;;;;;;5005058;28;20428;-90
2023/12/28 15:34:24;;;;;;;1.30;1.10;;;10.10;97.30;;;;;;4994307;28;20186;-90
2023/12/28 15:36:49;;;;;;;1.83;1.80;;;10.00;97.30;;;;;;5000004;28;20209;-90
2023/12/28 15:39:14;;;;;;;1.43;1.30;;;10.00;97.30;;;;;;4995411;28;20679;-90
2023/12/28 15:41:41;;;;;;;1.33;1.27;;;10.00;97.30;;;;;;4996370;28;20268;-91
2023/12/28 15:44:07;;;;;;;2.30;1.83;;;9.90;97.30;;;;;;5007282;28;20682;-91
2023/12/28 15:46:33;;;;;;;1.37;1.27;;;9.90;97.30;;;;;;5000519;28;20543;-93
2023/12/28 15:48:58;;;;;;;1.10;1.00;;;9.80;97.30;;;;;;5000155;28;20205;-89
2023/12/28 15:51:24;;;;;;;1.63;1.53;;;9.80;97.30;;;;;;5004541;28;20468;-90
2023/12/28 15:53:50;;;;;;;1.50;1.40;;;9.80;97.30;;;;;;5007108;28;20190;-90
2023/12/28 15:56:16;;;;;;;1.00;0.90;;;9.80;97.30;;;;;;5012010;28;20202;-93
2023/12/28 15:58:42;;;;;;;1.17;1.07;;;9.70;97.30;;;;;;5009531;28;20439;-93
2023/12/28 16:01:08;;;;;;;1.00;0.90;;;9.70;97.30;;;;;;5007421;28;20190;-91
2023/12/28 16:03:33;;;;;;;1.00;0.90;;;9.70;97.30;;;;;;5006720;28;20471;-90
2023/12/28 16:05:59;;;;;;;1.10;1.00;;;9.70;97.30;;;;;;5000076;28;20213;-89
2023/12/28 16:08:24;;;;;;;1.30;1.20;;;9.70;97.30;;;;;;5007527;28;20182;-91
2023/12/28 16:10:50;;;;;;;1.20;1.10;;;9.70;97.30;;;;;;5013824;28;20204;-91
2023/12/28 16:13:15;;;;;;;1.47;1.10;;;9.70;97.30;;;;;;5000320;28;20189;-90
2023/12/28 16:15:41;;;;;;;1.10;1.00;;;9.70;97.30;;;;;;5009532;28;20358;-90
2023/12/28 16:18:07;;;;;;;1.20;1.13;;;9.60;97.30;;;;;;5015525;28;20200;-92
2023/12/28 16:20:33;;;;;;;1.27;1.17;;;9.60;97.30;;;;;;5003549;28;20460;-90
2023/12/28 16:22:59;;;;;;;1.10;1.00;;;9.70;97.30;;;;;;5007153;28;20444;-92
2023/12/28 16:25:24;;;;;;;1.30;1.20;;;9.60;97.30;;;;;;5006164;28;20302;-91
2023/12/28 16:27:50;;;;;;;1.20;1.10;;;9.60;97.30;;;;;;5014478;28;20223;-89
2023/12/28 16:30:15;;;;;;;1.17;1.07;;;9.60;97.30;;;;;;5000548;28;20182;-92
2023/12/28 16:32:44;;;;;;;1.00;0.90;;;9.60;97.30;;;;;;5009957;28;20193;-91
2023/12/28 16:35:09;;;;;;;1.10;1.00;;;9.60;97.30;;;;;;5026193;28;20211;-89
2023/12/28 16:37:35;;;;;;;1.10;1.00;;;9.50;97.30;;;;;;5014768;28;20452;-92
2023/12/28 16:40:03;;;;;;;1.60;1.20;;;9.50;97.30;;;;;;5016973;28;20185;-91
2023/12/28 16:42:28;;;;;;;0.90;0.80;;;9.40;97.30;;;;;;5004730;28;20655;-91
2023/12/28 16:44:54;;;;;;;1.63;1.00;;;9.40;97.30;;;;;;5008173;28;20518;-90
2023/12/28 16:47:19;;;;;;;1.03;1.00;;;9.40;97.30;;;;;;5007857;28;20177;-90
2023/12/28 16:49:45;;;;;;;1.00;0.90;;;9.40;97.30;;;;;;5001844;28;20209;-88
2023/12/28 16:52:12;;;;;;;6.20;1.53;;;9.40;97.30;;;;;;4993312;28;20182;-90
2023/12/28 16:54:38;;;;;;;1.23;1.20;;;9.30;97.30;;;;;;4995864;28;20182;-90
2023/12/28 16:57:03;;;;;;;1.00;0.90;;;9.30;97.30;;;;;;4997224;28;20436;-91
2023/12/28 16:59:30;;;;;;;6.53;1.73;;;9.30;97.30;;;;;;5000742;28;20181;-92
2023/12/28 17:01:55;;;;;;;1.20;1.10;;;9.30;97.30;;;;;;5006162;28;20190;-92
2023/12/28 17:04:21;;;;;;;1.10;1.00;;;9.30;97.30;;;;;;5018455;28;20442;-90
2023/12/28 17:06:46;;;;;;;1.00;0.90;;;9.30;97.30;;;;;;5015220;28;20277;-92
2023/12/28 17:09:14;;;;;;;0.90;0.80;;;9.20;97.30;;;;;;5016464;28;20185;-90
2023/12/28 17:11:44;;;;;;;1.00;0.90;;;9.20;97.30;;;;;;5010183;28;20243;-91
2023/12/28 17:14:10;;;;;;;1.07;1.00;;;9.20;97.30;;;;;;5013994;28;20416;-90
2023/12/28 17:16:36;;;;;;;0.90;0.80;;;9.20;97.30;;;;;;5016254;28;20756;-91
2023/12/28 17:19:02;;;;;;;1.40;1.30;;;9.10;97.30;;;;;;5014841;28;20452;-90
2023/12/28 17:21:33;;;;;;;1.00;0.90;;;9.10;97.30;;;;;;5001664;28;20208;-89
2023/12/28 17:23:59;;;;;;;1.10;1.00;;;9.10;97.30;;;;;;4997664;28;20212;-92
2023/12/28 17:26:26;;;;;;;1.30;1.20;;;9.10;97.30;;;;;;5005522;28;21010;-91
2023/12/28 17:29:06;;;;;;;1.17;1.07;;;9.10;97.30;;;;;;4988042;28;20174;-90
2023/12/28 17:31:33;;;;;;;1.40;1.30;;;9.10;97.30;;;;;;4987477;28;20942;-89
2023/12/28 17:33:59;;;;;;;1.00;0.90;;;9.10;97.30;;;;;;4990009;28;20425;-87
2023/12/28 17:36:30;;;;;;;6.63;1.77;;;9.10;97.30;;;;;;4994219;28;20758;-88
2023/12/28 17:39:05;;;;;;;1.27;1.17;;;9.10;97.30;;;;;;4993127;28;20812;-89
2023/12/28 17:41:33;;;;;;;0.90;0.80;;;9.00;97.30;;;;;;4992364;28;20428;-90
2023/12/28 17:44:13;;;;;;;1.40;1.30;;;9.00;97.30;;;;;;4997552;28;20474;-90
2023/12/28 17:46:56;;;;;;;1.90;1.50;;;9.00;97.30;;;;;;4993649;28;20501;-90
2023/12/28 17:49:27;;;;;;;1.00;0.90;;;9.00;97.30;;;;;;4998353;28;20567;-90
2023/12/28 17:51:58;;;;;;;2.63;1.50;;;9.00;97.30;;;;;;4997130;28;20435;-90
2023/12/28 17:54:24;;;;;;;8.37;3.20;;;9.00;97.30;;;;;;4991466;28;20428;-90